Time;durP1;ratioP1;P1;durP2;ratioP2;P2;SDS_P1;SDS_P2;PMS_P1;PMS_P2;Temp;Humidity;BMP_temperature;BMP_pressure;BME280_temperature;BME280_humidity;BME280_pressure;Samples;Min_cycle;Max_cycle;Signal;HPM_P1;HPM_P2
2021/03/15 00:00:56;;;;;;;4.70;4.43;;;5.90;83.00;;;;;;6247088;23;20143;-88
2021/03/15 00:03:25;;;;;;;6.22;5.82;;;5.80;82.80;;;;;;6273307;22;20134;-88
2021/03/15 00:06:44;;;;;;;7.18;4.93;;;8.40;86.80;;;;;;6272251;22;20130;-88
2021/03/15 00:09:26;;;;;;;6.57;5.90;;;5.90;83.70;;;;;;6243880;23;20135;-88
2021/03/15 00:11:53;;;;;;;9.07;4.97;;;5.80;87.00;;;;;;6273345;22;20131;-89
2021/03/15 00:14:57;;;;;;;5.82;5.15;;;5.90;87.30;;;;;;6245386;23;20525;-88
2021/03/15 00:18:00;;;;;;;12.20;5.63;;;5.80;83.10;;;;;;6252526;23;20154;-88
2021/03/15 00:20:32;;;;;;;5.68;5.00;;;5.80;84.40;;;;;;6238214;22;20146;-87
2021/03/15 00:25:38;;;;;;;10.73;5.55;;;5.90;85.90;;;;;;6094941;22;20208;-88
2021/03/15 00:28:06;;;;;;;13.27;7.53;;;6.90;87.50;;;;;;6090545;23;20151;-88
2021/03/15 00:30:35;;;;;;;10.27;6.80;;;6.00;88.90;;;;;;6190608;23;20225;-91
2021/03/15 00:33:01;;;;;;;6.38;5.80;;;5.90;89.10;;;;;;6115696;23;20181;-89
2021/03/15 00:35:35;;;;;;;6.70;5.30;;;5.90;89.50;;;;;;6094037;23;20201;-89
2021/03/15 00:38:02;;;;;;;9.10;6.13;;;5.90;86.30;;;;;;6118611;23;20169;-89
2021/03/15 00:40:28;;;;;;;5.93;5.45;;;5.80;89.80;;;;;;6186437;23;20159;-88
2021/03/15 00:43:00;;;;;;;12.48;7.18;;;5.80;90.20;;;;;;6094598;23;20177;-89
2021/03/15 00:45:27;;;;;;;13.30;7.18;;;5.90;87.60;;;;;;6119473;23;20158;-88
2021/03/15 00:47:54;;;;;;;14.60;6.78;;;5.90;90.60;;;;;;6085854;23;20164;-88
2021/03/15 00:50:30;;;;;;;12.35;6.90;;;5.90;91.00;;;;;;6085520;23;20624;-88
2021/03/15 00:52:57;;;;;;;11.82;7.75;;;5.80;91.40;;;;;;6086576;23;20145;-89
2021/03/15 00:55:23;;;;;;;13.40;7.38;;;5.80;91.40;;;;;;6088337;23;20165;-90
2021/03/15 00:57:50;;;;;;;12.25;8.15;;;5.70;91.50;;;;;;6089487;23;20186;-89
2021/03/15 01:00:19;;;;;;;6.88;6.38;;;5.80;91.60;;;;;;6087013;23;20157;-87
2021/03/15 01:02:45;;;;;;;7.93;6.85;;;5.80;91.80;;;;;;6086656;23;20150;-89
2021/03/15 01:05:12;;;;;;;13.20;7.37;;;5.70;91.70;;;;;;6088620;23;20137;-88
2021/03/15 01:07:58;;;;;;;10.00;7.03;;;5.40;91.70;;;;;;6189880;23;20154;-89
2021/03/15 01:10:30;;;;;;;8.55;6.55;;;5.70;90.50;;;;;;6086964;23;20154;-88
2021/03/15 01:12:55;;;;;;;9.18;7.45;;;5.60;92.40;;;;;;6082114;23;20204;-88
2021/03/15 01:15:21;;;;;;;11.43;8.13;;;5.60;92.20;;;;;;6085409;23;20154;-89
2021/03/15 01:17:47;;;;;;;10.82;7.88;;;5.60;92.10;;;;;;6084888;23;20245;-89
2021/03/15 01:20:26;;;;;;;14.90;8.27;;;5.50;92.30;;;;;;6113762;23;20209;-89
2021/03/15 01:22:55;;;;;;;8.48;6.35;;;4.00;90.70;;;;;;6108330;23;20192;-88
2021/03/15 01:25:36;;;;;;;8.93;7.30;;;5.60;92.50;;;;;;6108176;23;20193;-90
2021/03/15 01:28:04;;;;;;;9.75;6.60;;;5.60;92.60;;;;;;6082498;23;20161;-88
2021/03/15 01:30:33;;;;;;;13.50;6.32;;;5.60;92.10;;;;;;6080887;23;20173;-89
2021/03/15 01:33:08;;;;;;;8.63;6.57;;;5.60;92.10;;;;;;6107517;23;20146;-90
2021/03/15 01:35:34;;;;;;;10.07;7.93;;;5.50;90.70;;;;;;6082970;23;20225;-89
2021/03/15 01:38:00;;;;;;;7.07;6.50;;;5.40;91.90;;;;;;6084675;23;20185;-89
2021/03/15 01:40:26;;;;;;;7.45;6.72;;;5.40;91.80;;;;;;6110339;23;20384;-89
2021/03/15 01:43:01;;;;;;;6.80;6.10;;;5.40;91.80;;;;;;6119810;23;20150;-89
2021/03/15 01:45:29;;;;;;;10.40;6.82;;;5.60;92.00;;;;;;6087505;23;20162;-89
2021/03/15 01:48:01;;;;;;;7.05;6.38;;;5.50;91.70;;;;;;6086109;23;20150;-89
2021/03/15 01:50:27;;;;;;;7.85;7.05;;;5.50;91.90;;;;;;6091930;23;20169;-89
2021/03/15 01:53:00;;;;;;;11.00;7.93;;;5.60;91.90;;;;;;6085999;23;20178;-90
2021/03/15 01:55:50;;;;;;;14.25;8.52;;;5.60;90.40;;;;;;6118630;23;20370;-89
2021/03/15 01:58:16;;;;;;;10.63;7.75;;;5.40;90.60;;;;;;6096274;23;20220;-90
2021/03/15 02:00:45;;;;;;;10.18;7.35;;;5.40;92.40;;;;;;6087739;23;20162;-90
2021/03/15 02:03:12;;;;;;;9.85;7.55;;;5.50;91.10;;;;;;6084435;23;20216;-90
2021/03/15 02:05:47;;;;;;;8.60;7.10;;;5.40;92.80;;;;;;6091071;23;20226;-90
2021/03/15 02:08:14;;;;;;;9.85;7.72;;;;;;;;;;6117222;23;20153;-90
2021/03/15 02:10:40;;;;;;;10.63;6.82;;;5.50;92.50;;;;;;6192622;23;20138;-90
2021/03/15 02:13:40;;;;;;;10.48;7.90;;;5.50;92.40;;;;;;6091934;23;20164;-90
2021/03/15 02:16:56;;;;;;;8.95;7.25;;;4.30;90.50;;;;;;6111649;23;20149;-89
2021/03/15 02:20:29;;;;;;;10.60;7.90;;;8.00;93.00;;;;;;6175763;23;20198;-90
2021/03/15 02:23:50;;;;;;;12.10;7.60;;;5.50;92.80;;;;;;6114615;23;20195;-90
2021/03/15 02:26:56;;;;;;;7.30;6.60;;;5.40;91.30;;;;;;6115557;23;20198;-90
2021/03/15 02:29:56;;;;;;;9.05;6.70;;;5.70;91.70;;;;;;6216281;23;20154;-90
2021/03/15 02:32:45;;;;;;;6.38;5.97;;;6.40;92.00;;;;;;6090229;23;20146;-90
2021/03/15 02:35:25;;;;;;;13.93;7.43;;;5.60;91.20;;;;;;6218777;23;20206;-90
2021/03/15 02:38:22;;;;;;;11.07;8.82;;;8.00;92.70;;;;;;6162384;23;20166;-90
2021/03/15 02:43:26;;;;;;;13.10;8.93;;;5.90;92.10;;;;;;6088819;23;20254;-90
2021/03/15 02:45:59;;;;;;;13.75;9.07;;;5.60;93.10;;;;;;6091779;23;20158;-90
2021/03/15 02:48:32;;;;;;;9.60;8.15;;;5.40;93.00;;;;;;6089914;23;20154;-89
2021/03/15 02:51:04;;;;;;;10.20;9.13;;;5.40;93.50;;;;;;6092180;23;20149;-89
2021/03/15 02:53:37;;;;;;;11.15;9.02;;;5.40;92.00;;;;;;6089929;23;20144;-90
2021/03/15 02:56:35;;;;;;;11.98;9.60;;;5.40;93.40;;;;;;6087167;23;20158;-89
2021/03/15 02:59:06;;;;;;;12.60;11.38;;;5.50;93.60;;;;;;6082100;23;20194;-89
2021/03/15 03:04:31;;;;;;;13.35;11.55;;;5.40;93.70;;;;;;6177129;23;20170;-89
2021/03/15 03:07:07;;;;;;;13.38;12.07;;;5.30;93.60;;;;;;6089726;23;20135;-89
2021/03/15 03:09:38;;;;;;;14.00;12.60;;;5.60;93.60;;;;;;6108351;23;20154;-90
2021/03/15 03:12:16;;;;;;;13.45;11.88;;;5.50;92.30;;;;;;6088953;23;20119;-89
2021/03/15 03:14:51;;;;;;;16.02;11.48;;;5.60;91.80;;;;;;6085019;23;20161;-89
2021/03/15 03:17:26;;;;;;;14.63;12.73;;;5.60;93.10;;;;;;6087715;23;20135;-89
2021/03/15 03:23:13;;;;;;;16.75;12.23;;;4.90;91.30;;;;;;6089821;23;20185;-90
2021/03/15 03:26:44;;;;;;;15.32;11.32;;;5.70;93.10;;;;;;6190694;23;20175;-89
2021/03/15 03:29:15;;;;;;;17.48;12.27;;;7.30;92.60;;;;;;6211513;23;20152;-89
2021/03/15 03:31:59;;;;;;;17.30;10.95;;;5.80;92.80;;;;;;6186811;23;20215;-89
2021/03/15 03:34:31;;;;;;;15.63;12.25;;;8.60;93.20;;;;;;6185354;23;20149;-89
2021/03/15 03:37:09;;;;;;;16.35;12.25;;;7.40;92.40;;;;;;6207689;23;20142;-89
2021/03/15 03:39:59;;;;;;;12.30;11.10;;;9.30;93.90;;;;;;6183193;23;20240;-90
2021/03/15 03:46:12;;;;;;;18.08;11.50;;;8.20;93.10;;;;;;6196042;23;20212;-88
2021/03/15 03:52:13;;;;;;;21.55;12.27;;;8.00;92.80;;;;;;6202931;23;20163;-90
2021/03/15 03:54:52;;;;;;;15.23;11.05;;;5.80;91.30;;;;;;6111703;23;20159;-90
2021/03/15 03:57:43;;;;;;;13.30;11.90;;;5.80;93.10;;;;;;6185659;23;20147;-89
2021/03/15 04:00:37;;;;;;;13.40;11.18;;;6.60;92.20;;;;;;6211662;23;20207;-90
2021/03/15 04:03:40;;;;;;;12.55;10.00;;;8.20;93.00;;;;;;6161685;23;20143;-90
2021/03/15 04:06:40;;;;;;;9.30;8.40;;;8.20;93.30;;;;;;6210171;23;20124;-89
2021/03/15 04:15:08;;;;;;;14.27;10.93;;;5.60;91.50;;;;;;6103601;23;20198;-90
2021/03/15 04:17:45;;;;;;;17.98;11.10;;;5.50;93.30;;;;;;6094603;23;20142;-90
2021/03/15 04:20:28;;;;;;;12.50;11.30;;;5.70;93.30;;;;;;6117755;23;20149;-90
2021/03/15 04:23:04;;;;;;;17.58;11.05;;;5.70;93.50;;;;;;6119027;23;20134;-89
2021/03/15 04:25:41;;;;;;;14.13;9.95;;;5.70;93.30;;;;;;6119278;23;20142;-90
2021/03/15 04:28:10;;;;;;;15.52;11.82;;;5.70;93.20;;;;;;6093669;23;20224;-89
2021/03/15 04:30:38;;;;;;;12.88;11.55;;;5.70;92.90;;;;;;6093403;23;20210;-89
2021/03/15 04:33:06;;;;;;;15.80;11.73;;;5.60;93.10;;;;;;6092963;23;20138;-90
2021/03/15 04:35:34;;;;;;;13.13;11.85;;;5.60;93.40;;;;;;6093698;23;20158;-86
2021/03/15 04:38:02;;;;;;;15.57;11.27;;;5.70;93.50;;;;;;6092999;23;20190;-89
2021/03/15 04:40:34;;;;;;;12.40;11.20;;;5.70;93.50;;;;;;6091011;23;20217;-90
2021/03/15 04:43:38;;;;;;;15.00;12.60;;;5.60;92.10;;;;;;6094577;23;20130;-88
2021/03/15 04:46:25;;;;;;;17.48;12.93;;;7.30;93.10;;;;;;6115706;23;20154;-89
2021/03/15 04:48:56;;;;;;;19.38;14.38;;;5.50;91.60;;;;;;6209684;23;20158;-87
2021/03/15 04:51:26;;;;;;;17.80;13.80;;;5.70;93.10;;;;;;6117880;23;20145;-90
2021/03/15 04:54:31;;;;;;;22.25;15.50;;;5.70;92.20;;;;;;6116924;23;20177;-90
2021/03/15 04:56:59;;;;;;;17.23;10.80;;;5.70;92.60;;;;;;6093549;23;20162;-90
2021/03/15 05:02:31;;;;;;;13.50;10.90;;;5.50;91.90;;;;;;6115201;23;20197;-89
2021/03/15 05:05:01;;;;;;;10.80;9.70;;;5.50;93.30;;;;;;6119669;23;20206;-91
2021/03/15 05:07:34;;;;;;;9.60;8.60;;;5.50;93.30;;;;;;6119959;23;20135;-90
2021/03/15 05:10:03;;;;;;;9.30;8.45;;;5.40;93.40;;;;;;6094598;23;20177;-90
2021/03/15 05:12:33;;;;;;;7.55;6.85;;;5.40;92.80;;;;;;6094190;23;20158;-91
2021/03/15 05:15:07;;;;;;;8.95;7.95;;;5.30;90.80;;;;;;6118583;23;20133;-89
2021/03/15 05:33:22;;;;;;;;;;;;;;;;;;;;;
2021/03/15 05:38:29;;;;;;;8.98;6.55;;;5.40;91.70;;;;;;6108717;23;20192;-89
2021/03/15 05:40:56;;;;;;;7.50;6.80;;;5.40;91.20;;;;;;6094804;23;20165;-90
2021/03/15 05:44:03;;;;;;;7.72;7.03;;;5.40;92.70;;;;;;6119747;23;20166;-90
2021/03/15 05:47:20;;;;;;;9.05;7.05;;;5.40;91.20;;;;;;6150329;23;20138;-90
2021/03/15 05:50:24;;;;;;;7.88;7.18;;;5.50;91.10;;;;;;6221939;23;20209;-90
2021/03/15 06:01:16;;;;;;;8.40;6.10;;;5.50;91.40;;;;;;6101810;23;20209;-85
2021/03/15 06:07:39;;;;;;;5.85;5.35;;;6.00;90.50;;;;;;6118939;23;20174;-89
2021/03/15 06:10:13;;;;;;;9.05;7.07;;;6.60;91.00;;;;;;6124286;22;20197;-90
2021/03/15 06:13:05;;;;;;;8.02;7.18;;;5.60;91.80;;;;;;6093515;23;20150;-87
2021/03/15 06:15:40;;;;;;;9.95;7.55;;;5.60;91.80;;;;;;6118258;23;20118;-90
2021/03/15 06:18:15;;;;;;;8.32;7.50;;;4.80;89.50;;;;;;6117892;23;20154;-90
2021/03/15 06:20:48;;;;;;;8.30;6.90;;;8.20;92.00;;;;;;6117366;23;20219;-86
2021/03/15 06:23:19;;;;;;;9.05;8.25;;;6.90;92.10;;;;;;6092628;23;20213;-89
2021/03/15 06:25:49;;;;;;;10.85;9.65;;;5.60;92.00;;;;;;6116716;23;20118;-89
2021/03/15 06:28:16;;;;;;;16.48;10.55;;;5.50;92.00;;;;;;6092056;23;20186;-89
2021/03/15 06:30:43;;;;;;;10.88;9.73;;;5.50;92.60;;;;;;6093247;23;20159;-87
2021/03/15 06:33:13;;;;;;;10.70;9.70;;;5.20;92.50;;;;;;6192853;23;20236;-90
2021/03/15 06:35:45;;;;;;;11.32;10.05;;;5.60;93.10;;;;;;6116058;23;20143;-88
2021/03/15 06:38:18;;;;;;;11.52;9.63;;;5.50;93.90;;;;;;6116400;23;20186;-88
2021/03/15 06:40:56;;;;;;;10.73;9.55;;;5.70;93.50;;;;;;6116727;23;20150;-89
2021/03/15 06:43:54;;;;;;;12.65;11.35;;;5.80;93.40;;;;;;6115700;23;20164;-89
2021/03/15 06:47:04;;;;;;;10.02;8.98;;;5.80;92.60;;;;;;6090558;23;20154;-88
2021/03/15 06:49:56;;;;;;;12.50;9.68;;;6.00;91.70;;;;;;6115644;23;20232;-89
2021/03/15 06:52:58;;;;;;;13.32;11.93;;;5.60;90.90;;;;;;6194126;23;20166;-88
2021/03/15 06:55:58;;;;;;;18.42;10.00;;;6.10;91.20;;;;;;6103619;23;20206;-90
2021/03/15 07:01:26;;;;;;;11.90;9.98;;;6.30;92.40;;;;;;6088367;23;20198;-93
2021/03/15 07:04:11;;;;;;;13.82;9.90;;;6.00;91.90;;;;;;6089071;23;20146;-88
2021/03/15 07:06:41;;;;;;;12.65;9.70;;;6.10;91.40;;;;;;6089088;23;20169;-87
2021/03/15 07:09:21;;;;;;;9.57;8.80;;;6.40;92.70;;;;;;6190104;23;20181;-88
2021/03/15 07:12:21;;;;;;;11.70;9.45;;;6.60;91.90;;;;;;6087752;23;20155;-90
2021/03/15 07:15:28;;;;;;;14.30;8.18;;;6.90;91.10;;;;;;6072651;23;20177;-89
2021/03/15 07:18:33;;;;;;;8.75;7.95;;;7.30;89.90;;;;;;6085694;23;20179;-89
2021/03/15 07:23:57;;;;;;;7.07;6.47;;;8.30;87.60;;;;;;6099206;23;20151;-89
2021/03/15 07:26:43;;;;;;;8.20;7.28;;;7.00;86.80;;;;;;6187793;23;20147;-88
2021/03/15 07:29:21;;;;;;;10.07;5.97;;;7.00;87.90;;;;;;6090506;23;20149;-89
2021/03/15 07:32:04;;;;;;;8.00;6.50;;;8.70;84.80;;;;;;6086629;23;20143;-90
2021/03/15 07:34:37;;;;;;;7.55;6.53;;;9.10;78.30;;;;;;6086270;23;20143;-89
2021/03/15 07:37:12;;;;;;;6.95;5.85;;;8.30;78.70;;;;;;6183191;23;20214;-88
2021/03/15 07:39:51;;;;;;;7.70;6.65;;;8.40;75.00;;;;;;6175894;23;20190;-88
2021/03/15 07:42:29;;;;;;;21.30;8.32;;;8.40;78.00;;;;;;6185975;23;20138;-88
2021/03/15 07:45:02;;;;;;;10.77;7.72;;;9.20;76.70;;;;;;6085737;23;20135;-89
2021/03/15 07:47:38;;;;;;;7.75;5.90;;;9.80;70.90;;;;;;6085629;23;20161;-87
2021/03/15 07:50:06;;;;;;;9.52;6.35;;;11.60;65.50;;;;;;6083217;23;20198;-89
2021/03/15 07:52:43;;;;;;;8.40;7.60;;;11.10;62.90;;;;;;6085029;23;20218;-89
2021/03/15 07:55:38;;;;;;;12.93;9.37;;;13.40;63.10;;;;;;6183082;23;20482;-89
2021/03/15 08:03:43;;;;;;;12.45;10.00;;;9.20;63.50;;;;;;6097129;23;20213;-86
2021/03/15 08:06:10;;;;;;;16.70;10.90;;;8.30;69.10;;;;;;6066108;23;20586;-85
2021/03/15 08:08:36;;;;;;;17.27;11.40;;;8.70;70.50;;;;;;6066105;23;20539;-86
2021/03/15 08:11:04;;;;;;;15.43;10.20;;;8.70;74.50;;;;;;6091444;23;20209;-85
2021/03/15 08:13:35;;;;;;;12.57;9.55;;;7.80;74.10;;;;;;6091775;23;20390;-84
2021/03/15 08:16:02;;;;;;;12.20;9.50;;;6.70;74.10;;;;;;6091182;23;20192;-83
2021/03/15 08:18:30;;;;;;;13.32;9.95;;;7.70;76.60;;;;;;6091072;23;20230;-84
2021/03/15 08:21:05;;;;;;;13.27;11.90;;;7.40;76.10;;;;;;6067031;23;20158;-84
2021/03/15 08:23:32;;;;;;;17.52;11.50;;;7.70;78.50;;;;;;6065962;23;20157;-85
2021/03/15 08:26:16;;;;;;;14.05;11.50;;;7.00;80.70;;;;;;6092338;23;20150;-85
2021/03/15 08:28:42;;;;;;;16.08;11.25;;;7.20;88.00;;;;;;6092636;23;20134;-85
2021/03/15 08:31:23;;;;;;;11.50;10.38;;;7.20;86.40;;;;;;6068174;23;20158;-83
2021/03/15 08:33:50;;;;;;;10.57;9.15;;;7.30;85.20;;;;;;6093325;23;20161;-86
2021/03/15 08:36:16;;;;;;;15.50;10.90;;;7.20;84.10;;;;;;6067343;23;20173;-85
2021/03/15 08:38:43;;;;;;;14.18;10.43;;;7.00;84.80;;;;;;6069038;23;20192;-85
2021/03/15 08:41:10;;;;;;;15.60;10.60;;;7.10;83.00;;;;;;6093669;23;20156;-84
2021/03/15 08:43:47;;;;;;;7.70;7.10;;;7.20;84.00;;;;;;6100959;23;20158;-88
2021/03/15 08:46:17;;;;;;;6.03;5.53;;;6.00;80.10;;;;;;6198601;22;20209;-86
2021/03/15 08:48:46;;;;;;;5.35;4.85;;;8.40;77.20;;;;;;6121237;23;20158;-84
2021/03/15 08:51:36;;;;;;;4.80;4.40;;;8.70;75.50;;;;;;6111636;23;20150;-83
2021/03/15 08:54:08;;;;;;;6.43;5.10;;;9.50;73.20;;;;;;6124801;23;20158;-85
2021/03/15 08:56:47;;;;;;;6.45;5.95;;;8.70;74.20;;;;;;6091700;23;20162;-87
2021/03/15 08:59:45;;;;;;;8.82;5.15;;;8.80;74.10;;;;;;6105342;23;20192;-86
2021/03/15 09:02:41;;;;;;;7.40;5.32;;;11.40;74.10;;;;;;6159305;23;20166;-85
2021/03/15 09:08:57;;;;;;;7.38;6.15;;;10.90;68.20;;;;;;6106612;23;20263;-85
2021/03/15 09:11:48;;;;;;;13.45;6.93;;;12.20;69.20;;;;;;6092236;23;20146;-88
2021/03/15 09:14:27;;;;;;;9.57;5.90;;;10.30;70.60;;;;;;6117398;23;20157;-86
2021/03/15 09:17:36;;;;;;;7.22;4.90;;;8.20;69.70;;;;;;6118934;23;20400;-86
2021/03/15 09:22:42;;;;;;;6.28;5.80;;;8.30;74.80;;;;;;6118070;23;20212;-87
2021/03/15 09:33:22;;;;;;;7.13;6.00;;;8.00;76.60;;;;;;6108332;23;20201;-86
2021/03/15 09:35:48;;;;;;;8.05;5.75;;;10.40;80.30;;;;;;6104832;23;20154;-88
2021/03/15 09:38:14;;;;;;;7.17;4.93;;;8.60;79.80;;;;;;6111051;23;20199;-86
2021/03/15 09:40:43;;;;;;;4.63;3.40;;;9.00;73.70;;;;;;6113001;23;20219;-87
2021/03/15 09:43:45;;;;;;;7.93;3.30;;;11.40;65.10;;;;;;6087307;23;20570;-86
2021/03/15 09:46:30;;;;;;;4.83;3.23;;;11.70;54.70;;;;;;6116166;23;20385;-88
2021/03/15 09:49:30;;;;;;;2.80;2.70;;;13.80;55.40;;;;;;6185971;23;20386;-89
2021/03/15 09:52:24;;;;;;;3.30;3.00;;;13.60;54.40;;;;;;6116471;23;20382;-91
2021/03/15 09:57:25;;;;;;;4.83;2.53;;;11.20;51.60;;;;;;6115738;23;20189;-87
2021/03/15 10:00:19;;;;;;;6.97;3.30;;;11.70;58.50;;;;;;6115998;23;20493;-88
2021/03/15 10:02:45;;;;;;;4.03;3.30;;;12.20;53.00;;;;;;6118615;23;20198;-87
2021/03/15 10:05:27;;;;;;;3.70;2.80;;;9.30;59.20;;;;;;6090412;23;20214;-90
2021/03/15 10:07:53;;;;;;;2.40;2.20;;;15.00;56.60;;;;;;6116937;23;20377;-88
2021/03/15 10:11:01;;;;;;;4.07;2.40;;;13.30;57.60;;;;;;6193657;23;20386;-88
2021/03/15 10:16:06;;;;;;;8.83;8.33;;;14.00;46.40;;;;;;6119870;23;20448;-90
2021/03/15 10:18:32;;;;;;;2.97;1.70;;;;;;;;;;6080490;23;20449;-89
2021/03/15 10:21:02;;;;;;;3.60;1.43;;;14.90;65.90;;;;;;6110029;23;21253;-88
2021/03/15 10:23:45;;;;;;;1.80;1.40;;;15.00;59.50;;;;;;6091549;23;20422;-89
2021/03/15 10:26:15;;;;;;;2.13;1.40;;;14.90;57.70;;;;;;6089875;23;20390;-90
2021/03/15 10:31:21;;;;;;;1.90;1.50;;;15.00;58.60;;;;;;6085607;23;20469;-89
2021/03/15 10:33:50;;;;;;;3.10;1.87;;;14.40;58.70;;;;;;6085149;23;20410;-88
2021/03/15 10:36:27;;;;;;;4.40;2.80;;;13.80;59.40;;;;;;6086438;23;20431;-89
2021/03/15 10:39:18;;;;;;;5.30;2.60;;;12.40;48.70;;;;;;6084402;23;20426;-88
2021/03/15 10:41:44;;;;;;;2.27;2.07;;;11.90;62.80;;;;;;6085995;23;20453;-87
2021/03/15 10:47:11;;;;;;;2.83;1.97;;;11.10;52.30;;;;;;6083581;23;20756;-86
2021/03/15 10:49:40;;;;;;;8.55;2.28;;;11.20;54.00;;;;;;6080599;23;20426;-88
2021/03/15 10:52:33;;;;;;;3.90;2.10;;;10.70;58.80;;;;;;6092468;23;20155;-88
2021/03/15 10:55:17;;;;;;;3.58;2.10;;;11.20;59.80;;;;;;6109284;23;20151;-87
2021/03/15 10:58:10;;;;;;;3.80;2.15;;;10.70;66.80;;;;;;6085442;23;20134;-88
2021/03/15 11:01:20;;;;;;;;;;;;;;;;;;;;;
2021/03/15 11:03:49;;;;;;;4.90;2.08;;;10.70;66.10;;;;;;6117996;23;20190;-86
2021/03/15 11:06:19;;;;;;;5.63;2.90;;;11.00;79.50;;;;;;6095164;23;20177;-85
2021/03/15 11:08:56;;;;;;;5.93;1.95;;;11.20;65.70;;;;;;6090575;23;20882;-85
2021/03/15 11:11:25;;;;;;;4.10;2.03;;;11.30;59.90;;;;;;6092655;23;20163;-84
2021/03/15 11:13:56;;;;;;;6.60;2.20;;;10.70;59.00;;;;;;6065495;23;20416;-84
2021/03/15 11:16:25;;;;;;;4.03;1.55;;;10.80;54.30;;;;;;6092770;23;20138;-84
2021/03/15 11:19:05;;;;;;;3.63;1.98;;;10.00;53.10;;;;;;6092962;23;20243;-84
2021/03/15 11:21:32;;;;;;;6.30;1.98;;;11.90;55.10;;;;;;6093136;23;20173;-84
2021/03/15 11:23:59;;;;;;;4.97;2.70;;;10.20;53.40;;;;;;6091962;23;20166;-84
2021/03/15 11:26:25;;;;;;;5.60;1.50;;;10.40;52.80;;;;;;6067408;23;20150;-88
2021/03/15 11:28:56;;;;;;;4.20;2.00;;;12.90;51.60;;;;;;6091821;23;20717;-85
2021/03/15 11:31:27;;;;;;;7.03;2.03;;;12.70;50.00;;;;;;6091604;23;20811;-85
2021/03/15 11:33:57;;;;;;;4.73;2.00;;;11.80;52.30;;;;;;6087149;23;20695;-85
2021/03/15 11:36:25;;;;;;;2.60;1.80;;;11.10;50.20;;;;;;6065106;23;20798;-85
2021/03/15 11:39:03;;;;;;;4.45;2.25;;;10.40;50.50;;;;;;6064876;23;20472;-86
2021/03/15 11:41:34;;;;;;;5.35;2.05;;;10.20;51.30;;;;;;6090863;23;20703;-85
2021/03/15 11:44:03;;;;;;;3.05;1.48;;;10.00;50.80;;;;;;6091361;23;20141;-85
2021/03/15 11:46:29;;;;;;;7.75;2.30;;;10.00;48.90;;;;;;6090730;23;20161;-85
2021/03/15 11:48:54;;;;;;;2.13;1.23;;;9.80;50.60;;;;;;6091836;23;20150;-85
2021/03/15 11:51:20;;;;;;;0.90;0.90;;;9.90;51.50;;;;;;6092416;23;20195;-85
2021/03/15 11:53:46;;;;;;;3.38;1.90;;;9.30;52.60;;;;;;6068237;23;20186;-85
2021/03/15 11:56:13;;;;;;;2.10;1.30;;;9.80;53.60;;;;;;6095901;23;20184;-85
2021/03/15 11:58:40;;;;;;;2.00;1.60;;;10.80;53.30;;;;;;6094361;23;20481;-84
2021/03/15 12:01:07;;;;;;;1.40;1.27;;;11.50;52.20;;;;;;6068785;23;20957;-86
2021/03/15 12:03:32;;;;;;;3.23;2.00;;;11.70;49.60;;;;;;6094030;23;20881;-84
2021/03/15 12:05:59;;;;;;;1.60;1.50;;;11.90;50.00;;;;;;6093942;23;20390;-86
2021/03/15 12:08:25;;;;;;;5.70;2.67;;;14.90;49.10;;;;;;6093722;23;20378;-85
2021/03/15 12:10:51;;;;;;;2.63;2.13;;;15.10;50.90;;;;;;6094503;23;20408;-85
2021/03/15 12:13:17;;;;;;;3.73;2.80;;;11.90;48.30;;;;;;6093845;23;20378;-85
2021/03/15 12:15:46;;;;;;;7.27;2.50;;;14.50;50.80;;;;;;6066858;23;20386;-86
2021/03/15 12:21:00;;;;;;;2.30;2.10;;;11.60;47.90;;;;;;6102030;23;20325;-86
2021/03/15 12:23:26;;;;;;;2.15;1.90;;;12.20;50.60;;;;;;6090254;23;20139;-87
2021/03/15 12:25:58;;;;;;;3.30;2.00;;;14.50;59.20;;;;;;6112211;23;20208;-86
2021/03/15 12:28:40;;;;;;;3.67;1.77;;;9.40;54.70;;;;;;6103260;23;20504;-88
2021/03/15 12:33:57;;;;;;;1.90;1.63;;;10.40;52.00;;;;;;6169602;23;20496;-86
2021/03/15 12:36:24;;;;;;;3.85;1.90;;;13.00;57.00;;;;;;6132929;22;20202;-86
2021/03/15 12:41:44;;;;;;;2.40;1.60;;;11.20;48.50;;;;;;6136664;22;20451;-87
2021/03/15 12:49:50;;;;;;;;;;;;;;;;;;;;;
2021/03/15 12:58:16;;;;;;;2.05;1.27;;;10.40;53.40;;;;;;6108271;23;20206;-84
2021/03/15 13:00:41;;;;;;;1.77;1.40;;;12.20;57.90;;;;;;6111082;23;20201;-85
2021/03/15 13:03:08;;;;;;;2.43;2.23;;;15.20;56.50;;;;;;6090794;23;20397;-88
2021/03/15 13:05:34;;;;;;;7.13;1.73;;;12.30;50.50;;;;;;6088829;23;20154;-88
2021/03/15 13:07:59;;;;;;;2.43;1.90;;;12.00;52.60;;;;;;6076897;23;20870;-88
2021/03/15 13:10:25;;;;;;;5.27;2.50;;;11.70;52.50;;;;;;6097949;23;20154;-86
2021/03/15 13:12:55;;;;;;;1.57;1.47;;;11.20;53.40;;;;;;6086082;23;20215;-88
2021/03/15 13:15:22;;;;;;;5.03;1.50;;;11.00;53.10;;;;;;6104886;23;20238;-87
2021/03/15 13:17:50;;;;;;;7.38;2.63;;;10.90;54.30;;;;;;6067947;23;20433;-87
2021/03/15 13:26:15;;;;;;;3.83;2.00;;;10.50;54.40;;;;;;6112591;22;20205;-90
2021/03/15 13:28:41;;;;;;;1.52;1.52;;;12.80;57.00;;;;;;6215585;23;20200;-87
2021/03/15 13:31:28;;;;;;;4.83;1.57;;;10.70;55.60;;;;;;6115366;23;20146;-88
2021/03/15 13:33:56;;;;;;;1.85;1.40;;;11.10;54.90;;;;;;6118361;23;20210;-89
2021/03/15 13:36:28;;;;;;;3.35;2.08;;;11.50;54.90;;;;;;6112858;23;20153;-88
2021/03/15 13:38:55;;;;;;;3.40;2.00;;;11.60;53.40;;;;;;6087485;23;20240;-89
2021/03/15 13:41:21;;;;;;;2.75;2.15;;;12.30;54.10;;;;;;6114709;23;20142;-86
2021/03/15 13:44:10;;;;;;;2.47;1.57;;;10.60;56.40;;;;;;6087795;23;20154;-88
2021/03/15 13:46:41;;;;;;;5.57;1.98;;;10.90;56.00;;;;;;6088627;23;20165;-88
2021/03/15 13:49:14;;;;;;;4.90;1.60;;;10.00;59.70;;;;;;6087805;23;20162;-90
2021/03/15 13:51:51;;;;;;;2.67;1.42;;;10.00;60.70;;;;;;6088893;23;20173;-88
2021/03/15 13:54:52;;;;;;;1.17;1.08;;;10.40;59.60;;;;;;6113571;23;20130;-89
2021/03/15 13:57:45;;;;;;;3.13;1.52;;;9.40;59.60;;;;;;6114064;23;20229;-89
2021/03/15 14:00:13;;;;;;;2.10;1.35;;;9.30;61.20;;;;;;6216622;23;20170;-88
2021/03/15 14:02:41;;;;;;;2.50;0.90;;;9.10;68.80;;;;;;6115433;23;20198;-88
2021/03/15 14:05:07;;;;;;;3.60;0.70;;;8.60;70.40;;;;;;6214612;23;20294;-87
2021/03/15 14:07:55;;;;;;;2.65;1.50;;;11.10;71.10;;;;;;6115206;23;20192;-88
2021/03/15 14:10:22;;;;;;;4.13;1.52;;;11.90;63.70;;;;;;6108987;23;20188;-87
2021/03/15 14:12:52;;;;;;;4.40;2.03;;;9.80;63.30;;;;;;6090446;23;20172;-86
2021/03/15 14:15:43;;;;;;;4.20;1.90;;;9.30;58.30;;;;;;6088615;23;20165;-88
2021/03/15 14:18:17;;;;;;;1.63;1.20;;;8.40;59.70;;;;;;6209196;23;20174;-87
2021/03/15 14:20:46;;;;;;;1.85;1.75;;;8.80;61.60;;;;;;6160625;23;20141;-87
2021/03/15 14:23:14;;;;;;;2.58;1.88;;;9.00;66.70;;;;;;6192273;23;20142;-87
2021/03/15 14:25:41;;;;;;;1.65;1.55;;;11.50;60.90;;;;;;6088969;23;20166;-87
2021/03/15 14:31:11;;;;;;;2.25;1.70;;;11.20;58.70;;;;;;6090483;22;20618;-87
2021/03/15 14:33:37;;;;;;;1.20;1.10;;;11.40;58.10;;;;;;6091807;23;20177;-88
2021/03/15 14:36:04;;;;;;;1.90;1.10;;;10.70;59.60;;;;;;6190057;23;20154;-88
2021/03/15 14:38:33;;;;;;;3.00;1.50;;;10.50;61.20;;;;;;6085332;23;20492;-90
2021/03/15 14:41:00;;;;;;;1.42;1.33;;;11.20;60.00;;;;;;6192473;23;20181;-87
2021/03/15 14:43:28;;;;;;;3.47;1.60;;;9.80;63.20;;;;;;6090984;23;21034;-87
2021/03/15 14:46:12;;;;;;;2.92;1.40;;;9.60;65.30;;;;;;6089105;23;20226;-88
2021/03/15 14:48:46;;;;;;;2.35;1.65;;;12.20;64.00;;;;;;6112481;23;20194;-88
2021/03/15 14:58:52;;;;;;;5.32;1.70;;;8.80;64.10;;;;;;6116632;22;20201;-87
2021/03/15 15:01:21;;;;;;;2.03;1.83;;;8.60;66.70;;;;;;6113422;22;20237;-87
2021/03/15 15:04:09;;;;;;;5.25;1.20;;;10.60;68.40;;;;;;6087867;23;20218;-87
2021/03/15 15:06:56;;;;;;;2.80;1.10;;;8.20;59.80;;;;;;6112139;23;20150;-86
2021/03/15 15:09:24;;;;;;;3.05;1.17;;;8.10;65.00;;;;;;6115638;22;20168;-87
2021/03/15 15:12:24;;;;;;;6.05;1.83;;;7.80;63.50;;;;;;6092173;23;20207;-88
2021/03/15 15:14:51;;;;;;;6.68;2.13;;;10.30;63.00;;;;;;6112025;22;20155;-87
2021/03/15 15:17:18;;;;;;;4.00;2.10;;;8.40;62.90;;;;;;6111020;23;20134;-84
2021/03/15 15:22:19;;;;;;;1.50;1.50;;;9.20;59.60;;;;;;6106736;23;20190;-87
2021/03/15 15:24:48;;;;;;;1.93;1.80;;;9.50;61.90;;;;;;6087395;23;20279;-86
2021/03/15 15:27:18;;;;;;;3.03;2.05;;;9.40;58.70;;;;;;6087091;23;20169;-89
2021/03/15 15:29:45;;;;;;;3.42;1.95;;;9.60;60.60;;;;;;6086940;23;20163;-87
2021/03/15 15:32:11;;;;;;;7.20;2.08;;;9.50;61.70;;;;;;6113711;23;20182;-87
2021/03/15 15:34:55;;;;;;;;;;;;;;;;;;;;;
2021/03/15 15:37:27;;;;;;;5.22;2.30;;;9.80;60.10;;;;;;6113907;23;20150;-88
2021/03/15 15:39:53;;;;;;;5.85;1.65;;;11.40;62.30;;;;;;6083938;23;20224;-87
2021/03/15 15:42:42;;;;;;;2.33;1.87;;;8.70;62.30;;;;;;6089234;23;20151;-87
2021/03/15 15:45:29;;;;;;;6.53;3.92;;;10.50;61.40;;;;;;6184756;23;20159;-88
2021/03/15 15:47:58;;;;;;;3.40;2.80;;;10.10;59.50;;;;;;6088510;23;20161;-88
2021/03/15 15:50:30;;;;;;;7.90;2.30;;;11.10;60.00;;;;;;6200026;23;20169;-86
2021/03/15 15:52:56;;;;;;;2.58;1.92;;;10.00;58.60;;;;;;6096216;23;20190;-89